Time;durP1;ratioP1;P1;durP2;ratioP2;P2;SDS_P1;SDS_P2;PMS_P1;PMS_P2;Temp;Humidity;BMP_temperature;BMP_pressure;BME280_temperature;BME280_humidity;BME280_pressure;Samples;Min_cycle;Max_cycle;Signal;HPM_P1;HPM_P2
2022/06/14 00:01:38;;;;;;;;;7.50;6.75;;;;;19.28;42.71;101906.03;6253193;22;45423;-84
2022/06/14 00:04:04;;;;;;;;;11.75;10.25;;;;;19.27;43.15;101912.25;6250517;22;45411;-84
2022/06/14 00:06:42;;;;;;;;;;;;;;;;;;;;;
2022/06/14 00:09:09;;;;;;;;;11.75;10.25;;;;;19.22;43.37;101900.78;6278164;22;75714;-84
2022/06/14 00:11:38;;;;;;;;;12.25;10.50;;;;;19.20;43.38;101903.50;6251875;22;45477;-85
2022/06/14 00:14:06;;;;;;;;;10.25;10.25;;;;;19.19;43.49;101901.72;6279717;22;45303;-84
2022/06/14 00:16:32;;;;;;;;;12.00;10.25;;;;;19.17;43.48;101904.44;6251991;22;45398;-84
2022/06/14 00:18:58;;;;;;;;;9.00;9.00;;;;;19.15;43.38;101906.25;6251458;22;47936;-84
2022/06/14 00:21:24;;;;;;;;;10.25;10.25;;;;;19.13;43.33;101908.06;6252005;22;45264;-84
2022/06/14 00:23:50;;;;;;;;;9.75;8.50;;;;;19.10;43.51;101904.59;6251982;22;45254;-85
2022/06/14 00:26:16;;;;;;;;;8.75;8.00;;;;;19.06;43.35;101909.13;6252429;22;45550;-84
2022/06/14 00:28:46;;;;;;;;;8.50;8.50;;;;;19.02;43.66;101906.56;6251995;22;46853;-83
2022/06/14 00:31:18;;;;;;;;;8.00;8.00;;;;;18.98;43.69;101911.09;6252121;22;45231;-83
2022/06/14 00:33:47;;;;;;;;;5.50;2.25;;;;;18.94;44.00;101912.91;6279594;22;45308;-85
2022/06/14 00:36:28;;;;;;;;;7.00;5.50;;;;;18.92;43.95;101914.75;6251748;22;45142;-84
2022/06/14 00:38:54;;;;;;;;;9.25;7.75;;;;;18.89;43.91;101909.44;6252702;22;47918;-84
2022/06/14 00:41:40;;;;;;;;;6.50;6.25;;;;;18.89;44.00;101911.25;6251196;22;45331;-84
2022/06/14 00:44:12;;;;;;;;;7.50;7.00;;;;;18.86;43.48;101909.53;6279536;22;45253;-83
2022/06/14 00:47:13;;;;;;;;;2.25;2.25;;;;;18.81;43.85;101914.06;6249903;22;45446;-82
2022/06/14 00:49:43;;;;;;;;;8.00;8.00;;;;;18.77;43.92;101906.16;6277842;22;45516;-83
2022/06/14 00:52:24;;;;;;;;;8.75;8.75;;;;;18.73;44.03;101906.16;6278242;22;45338;-83
2022/06/14 00:54:54;;;;;;;;;7.00;7.00;;;;;18.71;43.89;101910.69;6252581;22;45118;-83
2022/06/14 00:57:35;;;;;;;;;5.50;5.50;;;;;18.66;44.03;101899.22;6250124;22;45214;-82
2022/06/14 01:00:11;;;;;;;;;6.75;6.75;;;;;18.63;44.11;101906.38;6279693;22;45487;-83
2022/06/14 01:02:53;;;;;;;;;6.00;5.75;;;;;18.56;44.24;101894.94;6251773;22;45219;-83
2022/06/14 01:06:05;;;;;;;;;6.25;5.25;;;;;18.51;44.09;101889.69;6250553;22;45165;-84
2022/06/14 01:08:37;;;;;;;;;7.00;6.00;;;;;18.48;44.58;101895.09;6280454;22;45292;-83
2022/06/14 01:11:06;;;;;;;;;8.25;7.75;;;;;18.43;44.62;101888.94;6250586;22;47268;-83
2022/06/14 01:13:31;;;;;;;;;8.00;8.00;;;;;18.39;44.54;101884.59;6252619;22;45824;-84
2022/06/14 01:15:57;;;;;;;;;7.50;7.25;;;;;18.40;44.44;101890.81;6250914;22;45366;-84
2022/06/14 01:18:26;;;;;;;;;7.00;6.50;;;;;18.36;44.53;101892.63;6280284;22;45207;-84
2022/06/14 01:20:52;;;;;;;;;6.00;6.00;;;;;18.34;44.79;101888.25;6279383;22;45403;-84
2022/06/14 01:23:18;;;;;;;;;8.00;7.50;;;;;18.30;44.63;101884.75;6252951;22;45379;-84
2022/06/14 01:25:51;;;;;;;;;6.25;6.25;;;;;18.25;45.21;101886.59;6278929;22;45377;-83
2022/06/14 01:28:24;;;;;;;;;7.00;7.00;;;;;18.20;45.04;101883.13;6280511;22;45278;-82
2022/06/14 01:31:11;;;;;;;;;7.25;5.00;;;;;18.14;44.80;101883.25;6278507;22;46155;-83
2022/06/14 01:33:42;;;;;;;;;6.00;5.75;;;;;18.12;45.21;101885.06;6277185;22;45171;-83
2022/06/14 01:36:17;;;;;;;;;8.25;8.00;;;;;18.08;45.13;101882.44;6251258;22;45293;-83
2022/06/14 01:38:45;;;;;;;;;7.00;5.75;;;;;18.04;45.18;101886.09;6279413;22;45350;-83
2022/06/14 01:41:33;;;;;;;;;5.25;4.25;;;;;18.01;45.38;101874.56;6251580;22;47019;-83
2022/06/14 01:44:12;;;;;;;;;3.00;3.00;;;;;17.98;45.11;101885.28;6250747;22;45265;-83
2022/06/14 01:47:22;;;;;;;;;8.00;7.25;;;;;17.94;45.54;101873.81;6251706;22;45174;-83
2022/06/14 01:52:54;;;;;;;;;4.50;4.00;;;;;17.85;45.95;101868.59;6279832;22;45761;-83
2022/06/14 01:55:57;;;;;;;;;7.00;5.75;;;;;17.81;45.73;101872.25;6250953;22;45415;-83
2022/06/14 01:58:49;;;;;;;;;7.50;6.00;;;;;17.78;46.00;101865.16;6250689;22;45461;-83
2022/06/14 02:01:25;;;;;;;;;6.50;6.50;;;;;17.73;45.62;101861.66;6251241;22;45228;-83
2022/06/14 02:07:25;;;;;;;;;6.00;5.00;;;;;17.59;46.16;101851.22;6280122;22;45295;-83
2022/06/14 02:10:14;;;;;;;;;6.00;5.00;;;;;17.56;46.50;101859.28;6251715;22;45178;-82
2022/06/14 02:12:55;;;;;;;;;4.00;3.00;;;;;17.53;46.53;101856.63;6279565;22;45357;-83
2022/06/14 02:15:20;;;;;;;;;6.00;6.00;;;;;17.49;46.54;101852.25;6253076;22;47481;-84
2022/06/14 02:17:55;;;;;;;;;5.00;5.00;;;;;17.46;46.60;101844.31;6286100;22;45168;-84
2022/06/14 02:20:27;;;;;;;;;7.00;7.00;;;;;17.47;46.73;101850.53;6261321;22;45253;-83
2022/06/14 02:23:01;;;;;;;;;7.00;7.00;;;;;17.46;46.94;101848.78;6254524;22;45213;-83
2022/06/14 02:25:37;;;;;;;;;4.50;4.50;;;;;17.44;47.15;101853.25;6252014;22;48060;-84
2022/06/14 02:28:09;;;;;;;;;7.50;5.00;;;;;17.46;46.91;101864.75;6250403;22;45247;-84
2022/06/14 02:30:44;;;;;;;;;6.75;6.00;;;;;17.42;46.87;101854.13;6252880;22;45268;-83
2022/06/14 02:33:18;;;;;;;;;5.50;5.50;;;;;17.40;46.88;101850.63;6278433;22;45251;-84
2022/06/14 02:35:48;;;;;;;;;6.75;6.75;;;;;17.38;46.87;101859.53;6280078;22;46270;-84
2022/06/14 02:38:40;;;;;;;;;6.50;5.50;;;;;17.35;46.89;101865.78;6250042;22;45438;-83
2022/06/14 02:41:33;;;;;;;;;;;;;;;;;;;;;
2022/06/14 02:44:16;;;;;;;;;6.00;6.00;;;;;17.34;46.91;101850.69;6277744;22;72824;-83
2022/06/14 02:46:48;;;;;;;;;7.75;7.00;;;;;17.32;47.32;101848.94;6278019;22;45466;-84
2022/06/14 02:49:30;;;;;;;;;7.75;7.00;;;;;17.32;47.40;101851.59;6251536;22;45193;-84
2022/06/14 02:52:07;;;;;;;;;7.00;7.00;;;;;17.30;47.31;101849.00;6250062;22;45382;-84
2022/06/14 02:54:44;;;;;;;;;6.75;6.75;;;;;17.26;47.33;101843.72;6279575;22;45168;-84
2022/06/14 02:57:15;;;;;;;;;5.00;5.00;;;;;17.24;47.37;101841.09;6250025;22;47030;-84
2022/06/14 03:00:07;;;;;;;;;6.25;6.25;;;;;17.20;47.26;101831.38;6251295;22;45472;-84
2022/06/14 03:02:42;;;;;;;;;6.25;6.25;;;;;17.12;47.41;101831.47;6229718;22;45307;-84
2022/06/14 03:05:29;;;;;;;;;7.25;6.00;;;;;17.12;47.65;101830.59;6279151;22;45197;-83
2022/06/14 03:08:04;;;;;;;;;7.25;6.00;;;;;17.06;47.82;101826.25;6250025;22;48113;-83
2022/06/14 03:10:39;;;;;;;;;6.25;6.00;;;;;17.05;47.79;101829.78;6279888;22;45366;-84
2022/06/14 03:13:15;;;;;;;;;11.00;6.25;;;;;16.98;48.13;101821.03;6276614;22;45392;-84
2022/06/14 03:15:47;;;;;;;;;6.00;6.00;;;;;16.98;48.03;101831.66;6251897;22;45311;-83
2022/06/14 03:18:35;;;;;;;;;5.50;5.50;;;;;16.99;47.84;101829.88;6252548;22;47039;-84
2022/06/14 03:21:13;;;;;;;;;6.25;6.00;;;;;16.96;48.10;101825.47;6251344;22;45217;-84
2022/06/14 03:24:05;;;;;;;;;7.25;7.25;;;;;16.94;47.89;101835.25;6280664;22;45192;-84
2022/06/14 03:26:39;;;;;;;;;6.75;6.25;;;;;16.91;48.29;101831.75;6244047;22;45620;-84
2022/06/14 03:29:10;;;;;;;;;6.00;5.00;;;;;16.89;48.28;101828.22;6252831;22;47122;-84
2022/06/14 03:31:48;;;;;;;;;6.25;4.75;;;;;16.85;48.07;101823.88;6251288;22;45790;-84
2022/06/14 03:34:33;;;;;;;;;5.75;5.75;;;;;16.84;48.70;101824.75;6252659;22;45378;-84
2022/06/14 03:37:22;;;;;;;;;7.50;6.00;;;;;16.81;48.34;101827.44;6252166;22;45401;-84
2022/06/14 03:39:54;;;;;;;;;4.00;4.00;;;;;16.77;48.44;101821.28;6251739;22;47163;-84
2022/06/14 03:42:21;;;;;;;;;4.75;4.25;;;;;16.76;48.20;101823.03;6280062;22;45381;-83
2022/06/14 03:44:46;;;;;;;;;5.25;5.25;;;;;16.74;48.70;101832.81;6251737;22;45405;-83
2022/06/14 03:47:23;;;;;;;;;5.00;5.00;;;;;16.74;48.58;101821.31;6252709;22;45579;-84
2022/06/14 03:49:56;;;;;;;;;10.00;6.50;;;;;16.76;48.64;101828.38;6250720;22;47191;-84
2022/06/14 03:52:51;;;;;;;;;7.00;7.00;;;;;16.73;48.65;101825.75;6253295;22;45374;-83
2022/06/14 03:55:33;;;;;;;;;5.75;5.75;;;;;16.72;48.60;101823.97;6251306;22;45390;-83
2022/06/14 03:58:36;;;;;;;;;7.25;7.25;;;;;16.71;48.73;101821.34;6252715;22;45417;-83
2022/06/14 04:01:14;;;;;;;;;5.00;4.00;;;;;16.69;48.86;101823.13;6279368;22;45307;-83
2022/06/14 04:07:18;;;;;;;;;3.00;3.00;;;;;16.67;49.00;101823.13;6240044;22;45177;-84
2022/06/14 04:09:57;;;;;;;;;4.00;4.00;;;;;16.67;49.18;101827.59;6251391;22;45540;-84
2022/06/14 04:12:38;;;;;;;;;4.75;4.75;;;;;16.65;49.12;101821.41;6252291;22;47363;-83
2022/06/14 04:15:29;;;;;;;;;5.00;4.00;;;;;16.65;49.10;101829.38;6251097;22;45219;-84
2022/06/14 04:21:01;;;;;;;;;5.25;5.25;;;;;16.64;49.35;101823.19;6279830;22;45225;-83
2022/06/14 04:23:47;;;;;;;;;6.50;5.25;;;;;16.67;48.97;101839.09;6251544;22;47887;-82
2022/06/14 04:26:44;;;;;;;;;6.00;6.00;;;;;16.68;49.27;101832.91;6251731;22;46117;-84
2022/06/14 04:29:33;;;;;;;;;5.00;5.00;;;;;16.65;49.21;101824.97;6250551;22;45245;-84
2022/06/14 04:32:32;;;;;;;;;6.00;6.00;;;;;16.63;49.40;101816.13;6252369;22;45296;-83
2022/06/14 04:35:17;;;;;;;;;6.00;6.00;;;;;16.64;49.57;101819.66;6251244;22;47223;-83
2022/06/14 04:37:53;;;;;;;;;9.00;6.25;;;;;16.65;49.54;101816.97;6252118;22;45261;-83
2022/06/14 04:40:41;;;;;;;;;5.75;5.75;;;;;16.65;49.56;101818.72;6280323;22;45101;-83
2022/06/14 04:43:16;;;;;;;;;8.50;7.00;;;;;16.64;49.51;101822.31;6250999;22;45303;-83
2022/06/14 04:45:56;;;;;;;;;5.75;5.75;;;;;16.63;49.53;101821.44;6280601;22;46103;-83
2022/06/14 04:48:31;;;;;;;;;4.75;4.75;;;;;16.63;49.80;101813.44;6250503;22;45409;-83
2022/06/14 04:51:06;;;;;;;;;7.00;7.00;;;;;16.66;49.69;101817.84;6253053;22;45470;-84
2022/06/14 04:53:48;;;;;;;;;6.25;5.00;;;;;16.66;49.68;101816.06;6250963;22;45385;-84
2022/06/14 04:56:27;;;;;;;;;6.00;6.00;;;;;16.68;49.62;101816.03;6252661;22;47748;-83
2022/06/14 04:59:00;;;;;;;;;6.00;5.00;;;;;16.69;49.43;101815.16;6250882;22;45208;-83
2022/06/14 05:01:32;;;;;;;;;7.75;7.00;;;;;16.75;49.57;101820.38;6253002;22;45481;-84
2022/06/14 05:04:05;;;;;;;;;7.50;7.00;;;;;16.75;49.65;101815.06;6279409;22;45330;-83
2022/06/14 05:06:47;;;;;;;;;7.00;7.00;;;;;16.79;49.58;101810.66;6279765;22;45980;-84
2022/06/14 05:09:21;;;;;;;;;6.00;5.75;;;;;16.84;49.42;101823.00;6252360;22;45625;-83
2022/06/14 05:12:16;;;;;;;;;9.50;6.00;;;;;16.85;49.66;101810.56;6280650;22;45318;-84
2022/06/14 05:14:56;;;;;;;;;7.25;6.50;;;;;16.88;49.87;101818.50;6256856;22;45444;-83
2022/06/14 05:17:30;;;;;;;;;7.25;7.25;;;;;16.91;49.64;101819.34;6282942;22;45214;-83
2022/06/14 05:20:04;;;;;;;;;7.50;6.25;;;;;16.94;49.92;101813.09;6279270;22;45173;-84
2022/06/14 05:23:15;;;;;;;;;7.00;6.25;;;;;16.98;50.01;101809.50;6251040;22;45121;-90
2022/06/14 05:25:48;;;;;;;;;8.00;7.25;;;;;17.05;49.51;101810.28;6278788;22;45459;-89
2022/06/14 05:28:28;;;;;;;;;8.25;7.00;;;;;17.08;49.42;101810.25;6253977;22;47001;-91
2022/06/14 05:31:09;;;;;;;;;7.75;6.00;;;;;17.10;49.34;101813.78;6251865;22;45193;-88
2022/06/14 05:33:52;;;;;;;;;6.75;6.50;;;;;17.14;49.26;101812.84;6254709;22;45547;-88
2022/06/14 05:36:24;;;;;;;;;6.50;6.50;;;;;17.17;49.39;101807.47;6268378;22;45398;-87
2022/06/14 05:39:08;;;;;;;;;5.75;5.75;;;;;17.19;49.40;101811.88;6266435;22;47636;-88
2022/06/14 05:41:46;;;;;;;;;7.25;5.00;;;;;17.20;49.17;101826.94;6260922;22;45177;-88
2022/06/14 05:44:23;;;;;;;;;6.25;6.00;;;;;17.22;49.27;101832.25;6256486;22;45184;-88
2022/06/14 05:47:09;;;;;;;;;6.00;6.00;;;;;17.25;49.33;101820.69;6250547;22;45249;-89
2022/06/14 05:49:43;;;;;;;;;9.75;7.50;;;;;17.27;49.22;101819.75;6251712;22;47160;-88
2022/06/14 05:52:25;;;;;;;;;8.00;8.00;;;;;17.31;49.26;101818.78;6253008;22;45407;-88
2022/06/14 05:55:09;;;;;;;;;4.75;4.25;;;;;17.36;49.25;101824.94;6251677;22;45198;-88
2022/06/14 05:57:40;;;;;;;;;7.00;7.00;;;;;17.42;49.18;101818.63;6253527;22;45264;-89
2022/06/14 06:00:17;;;;;;;;;5.75;5.75;;;;;17.50;49.02;101818.53;6251751;22;45576;-90
2022/06/14 06:03:15;;;;;;;;;7.00;7.00;;;;;17.56;49.27;101816.66;6252426;22;45584;-91
2022/06/14 06:05:44;;;;;;;;;5.25;4.00;;;;;17.62;48.78;101810.34;6252235;22;45250;-91
2022/06/14 06:08:25;;;;;;;;;6.75;6.00;;;;;17.68;48.69;101806.72;6252106;22;45748;-88
2022/06/14 06:10:56;;;;;;;;;6.50;6.50;;;;;17.74;48.35;101803.94;6251519;22;46790;-92
2022/06/14 06:13:38;;;;;;;;;7.50;7.25;;;;;17.80;48.52;101809.19;6252794;22;45615;-91
2022/06/14 06:16:25;;;;;;;;;8.00;7.00;;;;;17.87;48.07;101807.31;6254141;22;45359;-92
2022/06/14 06:19:02;;;;;;;;;7.00;7.00;;;;;17.92;48.16;101801.00;6271106;22;44775;-92
2022/06/14 06:21:53;;;;;;;;;9.75;8.00;;;;;17.99;47.97;101800.00;6270359;22;47207;-93
2022/06/14 06:25:11;;;;;;;;;7.25;6.00;;;;;18.07;47.72;101806.06;6269375;22;44788;-93
2022/06/14 06:27:39;;;;;;;;;7.00;7.00;;;;;18.12;47.72;101795.31;6273403;22;45256;-93
2022/06/14 06:30:09;;;;;;;;;7.00;7.00;;;;;18.17;47.73;101790.78;6253071;22;45304;-91
2022/06/14 06:32:35;;;;;;;;;8.00;6.75;;;;;18.22;47.37;101788.03;6252532;22;48194;-91
2022/06/14 06:35:04;;;;;;;;;6.00;6.00;;;;;18.28;47.50;101798.56;6251877;22;45450;-92
2022/06/14 06:37:41;;;;;;;;;8.25;6.00;;;;;18.35;47.06;101800.22;6251497;22;45252;-87
2022/06/14 06:40:19;;;;;;;;;6.75;6.00;;;;;18.42;47.16;101799.22;6250615;22;45323;-89
2022/06/14 06:43:10;;;;;;;;;7.00;7.00;;;;;18.50;46.83;101801.72;6250730;22;46948;-89
2022/06/14 06:45:43;;;;;;;;;8.50;8.50;;;;;18.58;46.64;101791.78;6254642;22;45195;-89
2022/06/14 06:48:11;;;;;;;;;8.00;8.00;;;;;18.64;46.72;101788.97;6251932;22;45271;-89
2022/06/14 06:50:51;;;;;;;;;12.00;9.00;;;;;18.69;46.32;101787.09;6253046;22;45447;-88
2022/06/14 06:53:26;;;;;;;;;6.75;6.50;;;;;18.77;46.49;101794.13;6280222;22;45387;-89
2022/06/14 06:56:06;;;;;;;;;5.50;5.50;;;;;18.84;46.51;101788.59;6253404;22;45339;-90
2022/06/14 06:58:44;;;;;;;;;6.00;6.00;;;;;18.94;45.79;101783.94;6252970;22;45301;-88
2022/06/14 07:01:22;;;;;;;;;5.75;5.75;;;;;19.01;45.65;101780.22;6252168;22;46244;-88
2022/06/14 07:03:51;;;;;;;;;7.50;7.50;;;;;19.08;45.54;101788.97;6251508;22;47045;-88
2022/06/14 07:06:33;;;;;;;;;6.50;6.50;;;;;19.14;45.56;101783.53;6252320;22;45201;-89
2022/06/14 07:09:47;;;;;;;;;6.00;5.75;;;;;19.25;45.76;101778.81;6252782;22;45220;-88
2022/06/14 07:12:21;;;;;;;;;5.50;5.50;;;;;19.37;45.34;101777.63;6232126;22;45518;-88
2022/06/14 07:15:13;;;;;;;;;4.00;4.00;;;;;19.49;45.18;101781.81;6253748;22;47772;-89
2022/06/14 07:17:44;;;;;;;;;6.50;5.75;;;;;19.60;44.76;101775.28;6253090;22;45236;-88
2022/06/14 07:20:31;;;;;;;;;7.00;5.00;;;;;19.70;44.79;101770.63;6252024;22;45241;-89
2022/06/14 07:23:30;;;;;;;;;6.50;5.25;;;;;19.82;43.97;101772.09;6252774;22;45518;-89
2022/06/14 07:26:40;;;;;;;;;5.25;5.00;;;;;19.91;43.71;101765.63;6226264;22;47110;-94
2022/06/14 07:29:53;;;;;;;;;5.75;5.75;;;;;19.98;44.05;101756.53;6254305;22;45210;-91
2022/06/14 07:32:27;;;;;;;;;7.00;6.50;;;;;20.06;43.54;101767.91;6250578;22;45197;-92
2022/06/14 07:34:54;;;;;;;;;6.75;6.75;;;;;20.14;43.48;101759.69;6252503;22;45384;-92
2022/06/14 07:37:29;;;;;;;;;7.25;6.00;;;;;20.25;43.60;101755.78;6255261;22;47550;-93
2022/06/14 07:40:00;;;;;;;;;10.00;8.00;;;;;20.36;42.96;101754.59;6252954;22;45205;-92
2022/06/14 07:42:38;;;;;;;;;6.75;6.50;;;;;20.43;43.41;101756.19;6252937;22;45349;-92
2022/06/14 07:45:22;;;;;;;;;8.75;6.75;;;;;20.49;43.02;101759.56;6253237;22;45193;-92
2022/06/14 07:47:56;;;;;;;;;5.75;5.25;;;;;20.57;42.96;101755.81;6252747;22;46992;-93
2022/06/14 07:50:54;;;;;;;;;7.50;5.50;;;;;20.64;42.31;101755.59;6252434;22;45435;-92
2022/06/14 07:53:47;;;;;;;;;8.00;7.00;;;;;20.77;42.12;101752.53;6238445;22;45193;-93
2022/06/14 08:39:18;;;;;;;;;5.67;4.00;;;;;22.73;38.10;101708.31;6191526;22;46960;-81
2022/06/14 08:42:09;;;;;;;;;7.33;6.67;;;;;22.83;37.83;101714.22;6246918;22;45307;-76
2022/06/14 08:44:42;;;;;;;;;4.33;4.33;;;;;22.92;38.26;101704.91;6213325;22;45800;-77
2022/06/14 08:47:32;;;;;;;;;5.00;5.00;;;;;23.02;37.60;101712.56;6218577;22;45298;-77
2022/06/14 08:50:28;;;;;;;;;5.33;5.33;;;;;23.14;37.01;101705.81;6245189;22;45625;-79
2022/06/14 08:53:18;;;;;;;;;7.67;6.67;;;;;23.22;36.76;101701.00;6245929;22;45220;-78
2022/06/14 08:56:12;;;;;;;;;9.33;9.00;;;;;23.27;36.74;101706.19;6217283;22;45681;-78
2022/06/14 08:58:49;;;;;;;;;5.00;4.00;;;;;23.31;36.45;101710.50;6218167;22;45522;-78
2022/06/14 09:01:38;;;;;;;;;5.00;4.00;;;;;23.35;36.55;101698.69;6217428;22;45553;-77
2022/06/14 09:04:45;;;;;;;;;6.00;5.00;;;;;23.37;36.31;101699.50;6244389;22;46489;-78
2022/06/14 09:07:37;;;;;;;;;4.67;4.67;;;;;23.42;36.11;101699.31;6217259;22;45289;-77
2022/06/14 09:10:36;;;;;;;;;3.67;3.67;;;;;23.52;35.96;101700.66;6218001;22;45294;-76
2022/06/14 09:13:27;;;;;;;;;6.67;5.00;;;;;23.64;36.18;101702.81;6217553;22;45679;-76
2022/06/14 09:16:19;;;;;;;;;5.00;3.00;;;;;23.69;35.70;101698.13;6217613;22;48543;-76
2022/06/14 09:18:54;;;;;;;;;7.33;5.00;;;;;23.75;34.92;101699.69;6217428;22;45363;-76
2022/06/14 09:21:36;;;;;;;;;5.33;5.00;;;;;23.82;35.06;101701.19;6218433;22;45427;-77
2022/06/14 09:24:20;;;;;;;;;5.00;5.00;;;;;23.87;34.70;101701.88;6245029;22;45397;-77
2022/06/14 09:27:07;;;;;;;;;6.00;5.33;;;;;23.95;34.45;101690.75;6245811;22;45321;-77
2022/06/14 09:29:35;;;;;;;;;4.33;4.33;;;;;23.98;34.72;101686.13;6243854;22;45359;-77
2022/06/14 09:32:09;;;;;;;;;4.00;4.00;;;;;24.02;34.64;101689.53;6245889;22;45383;-75
2022/06/14 09:34:37;;;;;;;;;6.33;6.33;;;;;24.09;34.59;101679.38;6217534;22;45492;-76
2022/06/14 09:37:16;;;;;;;;;3.67;3.67;;;;;24.13;34.37;101680.97;6217669;22;45531;-76
2022/06/14 09:40:14;;;;;;;;;5.67;5.00;;;;;24.17;34.17;101686.16;6242858;22;45288;-75
2022/06/14 09:43:08;;;;;;;;;4.00;4.00;;;;;24.23;34.38;101690.38;6218311;22;45442;-76
2022/06/14 09:45:33;;;;;;;;;5.00;4.00;;;;;24.30;33.93;101696.34;6217244;22;45494;-75
2022/06/14 09:48:08;;;;;;;;;5.00;5.00;;;;;24.31;33.95;101690.03;6215964;22;47139;-76
2022/06/14 09:50:57;;;;;;;;;4.67;4.67;;;;;24.37;34.39;101687.03;6218003;22;45568;-77
2022/06/14 09:53:38;;;;;;;;;5.33;5.00;;;;;24.44;34.19;101691.25;6211634;22;45396;-78
2022/06/14 09:56:48;;;;;;;;;5.67;4.00;;;;;24.52;34.09;101691.75;6243502;22;45624;-77
2022/06/14 09:59:13;;;;;;;;;5.00;5.00;;;;;24.59;33.89;101684.25;6214105;22;45638;-77
2022/06/14 10:01:54;;;;;;;;;6.00;6.00;;;;;24.61;33.17;101688.63;6215753;22;45669;-78
2022/06/14 10:04:34;;;;;;;;;6.67;5.67;;;;;24.61;33.27;101682.38;6215935;22;45392;-77
2022/06/14 10:07:28;;;;;;;;;6.00;5.00;;;;;24.61;33.12;101675.16;6213324;22;45336;-78
2022/06/14 10:10:16;;;;;;;;;7.75;6.50;;;;;24.63;32.87;101667.00;6215188;22;46857;-77
2022/06/14 10:12:56;;;;;;;;;4.33;4.33;;;;;24.59;33.14;101668.09;6213866;22;45630;-77
2022/06/14 10:16:06;;;;;;;;;5.33;5.33;;;;;24.61;32.92;101667.06;6214845;22;45568;-77
2022/06/14 10:18:34;;;;;;;;;4.00;4.00;;;;;24.71;33.26;101670.22;6179654;23;45492;-77
2022/06/14 10:21:12;;;;;;;;;3.00;3.00;;;;;24.79;32.88;101672.53;6209788;22;47328;-78
2022/06/14 10:23:40;;;;;;;;;4.33;4.33;;;;;24.87;32.63;101660.44;6218327;22;45283;-77
2022/06/14 10:29:55;;;;;;;;;6.33;5.33;;;;;25.11;32.53;101667.38;6247125;22;45266;-76
2022/06/14 10:32:49;;;;;;;;;3.00;3.00;;;;;25.13;32.01;101663.66;6220974;22;47424;-75
2022/06/14 10:35:37;;;;;;;;;6.67;6.67;;;;;25.14;32.46;101660.00;6246267;22;45375;-79
2022/06/14 10:38:25;;;;;;;;;4.00;4.00;;;;;25.24;32.75;101657.78;6220237;22;45269;-77
2022/06/14 10:41:08;;;;;;;;;3.67;3.67;;;;;25.24;32.07;101663.16;6214961;22;45233;-78
2022/06/14 10:43:40;;;;;;;;;6.33;5.67;;;;;25.26;32.54;101655.84;6218749;22;46750;-79
2022/06/14 10:46:22;;;;;;;;;5.00;5.00;;;;;25.33;32.49;101648.34;6190117;22;45391;-77
2022/06/14 10:49:09;;;;;;;;;7.50;7.00;;;;;25.35;31.84;101644.63;6216940;22;45427;-79
2022/06/14 10:52:15;;;;;;;;;5.67;5.33;;;;;25.43;32.01;101637.00;6189799;22;45335;-78
2022/06/14 10:54:55;;;;;;;;;7.25;6.25;;;;;25.54;32.25;101631.03;6218636;22;46172;-78
2022/06/14 10:57:42;;;;;;;;;134.67;117.00;;;;;25.70;31.76;101637.38;6218607;22;45262;-76
2022/06/14 11:00:26;;;;;;;;;13.00;11.50;;;;;25.86;32.04;101632.06;6218440;22;45404;-76
2022/06/14 11:03:25;;;;;;;;;5.33;5.33;;;;;26.04;31.40;101632.91;6218735;22;45375;-76
2022/06/14 11:06:26;;;;;;;;;7.00;4.67;;;;;26.17;31.08;101625.00;6218866;22;46414;-76
2022/06/14 11:09:08;;;;;;;;;6.33;6.33;;;;;26.32;30.82;101624.13;6217871;22;45356;-76
2022/06/14 11:11:48;;;;;;;;;5.67;5.67;;;;;26.45;30.63;101618.94;6191595;22;45221;-78
2022/06/14 11:14:33;;;;;;;;;6.00;6.00;;;;;26.55;30.58;101609.38;6191140;22;45303;-77
2022/06/14 11:17:16;;;;;;;;;5.67;4.67;;;;;26.56;30.59;101611.13;6191326;22;46881;-76
2022/06/14 11:20:10;;;;;;;;;5.67;5.00;;;;;26.64;30.20;101604.41;6218360;22;45345;-77
2022/06/14 11:22:41;;;;;;;;;7.33;6.67;;;;;26.75;30.31;101597.41;6186560;22;45478;-77
2022/06/14 11:25:09;;;;;;;;;5.33;4.67;;;;;26.81;29.80;101590.78;6218664;22;45258;-77
2022/06/14 11:28:16;;;;;;;;;5.00;5.00;;;;;26.77;29.86;101583.81;6218316;22;45544;-76
2022/06/14 11:31:06;;;;;;;;;6.00;5.00;;;;;26.81;29.76;101580.88;6153118;23;45385;-76
2022/06/14 11:33:45;;;;;;;;;5.00;5.00;;;;;26.83;29.97;101576.22;6215920;22;45171;-79
2022/06/14 11:36:47;;;;;;;;;6.33;6.33;;;;;26.86;29.74;101574.31;6189492;22;45166;-77
2022/06/14 11:39:37;;;;;;;;;6.00;6.00;;;;;26.88;29.67;101566.97;6219380;22;47023;-76
2022/06/14 11:42:37;;;;;;;;;6.00;6.00;;;;;26.95;29.74;101569.25;6247308;22;45389;-77
2022/06/14 11:45:26;;;;;;;;;3.33;3.33;;;;;27.05;29.36;101564.13;6183306;22;45311;-77
2022/06/14 11:48:07;;;;;;;;;7.33;6.67;;;;;27.25;29.67;101558.44;6219244;22;45435;-81
2022/06/14 11:50:46;;;;;;;;;5.67;5.33;;;;;27.44;29.03;101558.19;6246248;22;46207;-81
2022/06/14 11:53:30;;;;;;;;;4.00;3.00;;;;;27.56;28.99;101553.84;6246540;22;45454;-78
2022/06/14 11:56:07;;;;;;;;;7.67;6.00;;;;;27.69;29.22;101545.81;6220197;22;45281;-78
2022/06/14 11:58:53;;;;;;;;;5.67;5.67;;;;;27.77;28.49;101559.72;6219698;22;45400;-78
2022/06/14 12:01:49;;;;;;;;;6.00;6.00;;;;;27.80;28.56;101542.44;6219548;22;47596;-78
2022/06/14 12:04:33;;;;;;;;;5.00;5.00;;;;;27.84;28.67;101541.31;6244215;22;45441;-77
2022/06/14 12:07:22;;;;;;;;;11.00;5.00;;;;;28.05;28.63;101537.22;6245153;22;45470;-81
2022/06/14 12:10:06;;;;;;;;;6.33;6.33;;;;;28.29;28.44;101536.59;6247182;22;45409;-79
2022/06/14 12:12:43;;;;;;;;;4.00;3.33;;;;;28.42;28.32;101533.97;6246617;22;45266;-78
2022/06/14 12:15:13;;;;;;;;;4.33;4.00;;;;;28.55;28.41;101534.91;6219642;22;45251;-78
2022/06/14 12:17:50;;;;;;;;;6.33;4.33;;;;;28.68;28.14;101530.41;6246839;22;45734;-78
2022/06/14 12:20:21;;;;;;;;;6.00;6.00;;;;;28.84;27.96;101541.06;6245840;22;45519;-78
2022/06/14 12:23:07;;;;;;;;;7.00;5.67;;;;;28.98;27.67;101530.16;6247670;22;45369;-80
2022/06/14 12:29:17;;;;;;;;;7.00;6.00;;;;;29.31;27.96;101517.97;6247057;22;45180;-78
2022/06/14 12:32:05;;;;;;;;;9.00;6.67;;;;;29.40;26.47;101514.63;6246098;22;45390;-79
2022/06/14 12:34:58;;;;;;;;;9.00;7.00;;;;;29.38;26.85;101512.97;6245437;22;46099;-78
2022/06/14 12:37:40;;;;;;;;;4.67;4.67;;;;;29.38;27.14;101505.72;6245001;22;45525;-79
2022/06/14 12:40:16;;;;;;;;;4.00;4.00;;;;;29.49;27.02;101490.50;6219219;22;45287;-77
2022/06/14 12:42:55;;;;;;;;;5.33;5.33;;;;;29.58;25.93;101500.69;6243590;22;45474;-77
2022/06/14 12:45:27;;;;;;;;;6.67;6.67;;;;;29.67;26.16;101494.63;6246744;22;45384;-78
2022/06/14 12:48:01;;;;;;;;;6.33;4.67;;;;;29.76;26.55;101501.25;6219642;22;45241;-79
2022/06/14 12:50:29;;;;;;;;;4.33;4.33;;;;;29.87;26.17;101502.19;6246594;22;45241;-77
2022/06/14 12:53:06;;;;;;;;;3.67;3.67;;;;;30.02;25.88;101507.47;6219732;22;45569;-81
2022/06/14 12:55:39;;;;;;;;;5.33;5.33;;;;;30.05;25.44;101513.56;6244650;22;47125;-78
2022/06/14 12:58:30;;;;;;;;;4.00;4.00;;;;;30.17;25.95;101505.47;6246569;22;45367;-79
2022/06/14 13:01:34;;;;;;;;;6.00;5.00;;;;;30.28;26.19;101505.56;6219494;22;45339;-78
2022/06/14 13:04:08;;;;;;;;;5.33;5.33;;;;;30.44;26.04;101506.16;6213101;22;45196;-77
2022/06/14 13:07:04;;;;;;;;;5.00;4.33;;;;;30.51;24.70;101502.00;6218868;22;46816;-78
2022/06/14 13:09:54;;;;;;;;;7.00;5.67;;;;;30.62;25.28;101497.59;6219169;22;45198;-78
2022/06/14 13:12:31;;;;;;;;;4.33;4.33;;;;;30.70;25.12;101496.00;6219493;22;45387;-78
2022/06/14 13:15:16;;;;;;;;;6.00;5.67;;;;;30.75;25.37;101492.94;6244940;22;45479;-78
2022/06/14 13:18:12;;;;;;;;;4.33;4.33;;;;;30.83;25.20;101486.97;6219127;22;48080;-78
2022/06/14 13:20:56;;;;;;;;;5.67;4.67;;;;;30.73;25.08;101486.75;6246906;22;45226;-78
2022/06/14 13:23:46;;;;;;;;;6.67;6.00;;;;;30.74;24.97;101486.66;6246697;22;45170;-78
2022/06/14 13:26:25;;;;;;;;;5.67;5.33;;;;;30.62;25.02;101479.44;6219342;22;45356;-78
2022/06/14 13:29:26;;;;;;;;;4.33;4.33;;;;;30.56;24.88;101474.47;6246528;22;45340;-77
2022/06/14 13:32:16;;;;;;;;;5.33;4.00;;;;;30.49;24.32;101468.63;6219401;22;45341;-78
2022/06/14 13:35:09;;;;;;;;;7.00;5.33;;;;;30.36;24.62;101467.81;6218576;22;45345;-78